This is the latest recevied weather packets stored in our database for station/object KC1TWD. If no packets are shown the sender has not sent any weather packets the latest 10 day(s).
| Time | Temp. | Humidity | Pressure | Rain* | Wind** | Luminosity | Snow |
|---|---|---|---|---|---|---|---|
| 1777664092 | 15.56° C | 34% | 1009.1 hPa | 0 mm | - | - | - |
| 1777663790 | 16.11° C | 31% | 1009 hPa | 0 mm | - | - | - |
| 1777663487 | 16.11° C | 33% | 1009.2 hPa | 0 mm | - | - | - |
| 1777663184 | 15.56° C | 36% | 1009.1 hPa | 0 mm | - | - | - |
| 1777662881 | 15° C | 36% | 1009.2 hPa | 0 mm | - | - | - |
| 1777662579 | 13.89° C | 39% | 1009.2 hPa | 0 mm | - | - | - |
| 1777662275 | 14.44° C | 35% | 1009.5 hPa | 0 mm | - | - | - |
| 1777661975 | 14.44° C | 35% | 1009.3 hPa | 0 mm | - | - | - |
| 1777661671 | 14.44° C | 36% | 1009.4 hPa | 0 mm | - | - | - |
| 1777661367 | 14.44° C | 36% | 1009.3 hPa | 0 mm | - | - | - |
| 1777661064 | 15.56° C | 34% | 1009.3 hPa | 0 mm | - | - | - |
| 1777660759 | 15.56° C | 34% | 1009.3 hPa | 0 mm | - | - | - |
| 1777660456 | 16.11° C | 34% | 1009.3 hPa | 0 mm | - | - | - |
| 1777660153 | 15.56° C | 36% | 1009.3 hPa | 0 mm | - | - | - |
| 1777659849 | 15° C | 36% | 1009.3 hPa | 0 mm | - | - | - |
| 1777659546 | 14.44° C | 37% | 1009.3 hPa | 0 mm | - | - | - |
| 1777659243 | 14.44° C | 38% | 1009.3 hPa | 0 mm | - | - | - |
| 1777658941 | 15.56° C | 38% | 1009.2 hPa | 0 mm | - | - | - |
| 1777658637 | 15° C | 38% | 1009.2 hPa | 0 mm | - | - | - |
| 1777658334 | 14.44° C | 37% | 1009.5 hPa | 0 mm | - | - | - |
| 1777658030 | 14.44° C | 40% | 1009.5 hPa | 0 mm | - | - | - |
| 1777657727 | 14.44° C | 42% | 1009.5 hPa | 0 mm | - | - | - |
| 1777657425 | 14.44° C | 39% | 1009.4 hPa | 0 mm | - | - | - |
| 1777657123 | 14.44° C | 38% | 1009.4 hPa | 0 mm | - | - | - |
| 1777656820 | 14.44° C | 37% | 1009.3 hPa | 0 mm | - | - | - |
* Rain latest hour (hover to see other rain measurements)
** Current wind speed in m/s (hover to see current wind gust speed)